Terminal Aerodrome Forecast
Issued by NWS Grand Forks, ND

Home | Current Version | Previous Version | Text Only | Print | Product List | Glossary On
Versions: 1 2 3 4 5 6 7 8 9 10 11 12 13 14 15 16 17 18 19 20 21 22 23 24 25 26 27 28 29
846
FTUS43 KFGF 152334
TAFGFK
TAF
KGFK 152334Z 1600/1624 14009KT 3SM -SN OVC025
     FM160100 12008KT 1SM -SN OVC015
     FM160400 11007KT 2SM -SN OVC008
      TEMPO 1604/1605 3/4SM -SN OVC003
     FM160800 VRB06KT P6SM OVC008
     FM162300 33006KT P6SM BKN040=

USA.gov is the U.S. government's official web portal to all federal, state and local government web resources and services.